John Quigg — WDB9828 — position and weather

sailwx.info

Track history (hours):
 
Tides and Currents Weather Stations Pressure Air Temp Water Temp Dewpoint Dewpoint Depression Visibility Wind Speed Wind Dir Waves Ship Positions

John Quigg

Owner: Harley Marine Services, Inc, Seattle, WA. More information available from US FCC via Universal Licensing System and Coast Guard Vessel Documentation Center.

Last reported at 2015-Jun-29 22:31 UTC. Time now 2015-Jun-29 23:09 UTC.
Position N 33°45' W 118°16'.

MMSI: 365934954.

Date/timePositionNaut miles runAvg speedWind from/ knotsBaromVisibWave heightAir tempDewpointWater temp
2015-Jun-29 22:31N 33°45' W 118°16'1 1.4
2015-Jun-29 21:32N 33°44' W 118°16'0 0.0
2015-Jun-29 20:28N 33°44' W 118°16'1 1.1
2015-Jun-29 19:33N 33°45' W 118°17'1 1.0
2015-Jun-29 18:33N 33°44' W 118°16'0 0.0
2015-Jun-29 17:33N 33°44' W 118°16'3 2.7
2015-Jun-29 16:33N 33°45' W 118°13'0 0.0
2015-Jun-29 15:33N 33°45' W 118°13'3 2.5
2015-Jun-29 14:28N 33°43' W 118°11'0 0.5
2015-Jun-29 13:33N 33°44' W 118°12'4 4.1
2015-Jun-29 12:33N 33°45' W 118°16'1 0.6
2015-Jun-29 11:33N 33°45' W 118°16'3 2.4
2015-Jun-29 10:30N 33°43' W 118°15'4 4.1
2015-Jun-29 09:33N 33°46' W 118°13'0 0.0
2015-Jun-29 08:33N 33°46' W 118°13'0 0.4
2015-Jun-29 07:33N 33°46' W 118°13'3 2.5
2015-Jun-29 06:31N 33°43' W 118°14'2 1.7
2015-Jun-29 05:33N 33°44' W 118°16'0 0.0
2015-Jun-29 04:33N 33°44' W 118°16'0 0.0
2015-Jun-29 03:33N 33°44' W 118°16'0 0.0
2015-Jun-29 02:33N 33°44' W 118°16'0 0.0
2015-Jun-29 01:33N 33°44' W 118°16'3 2.8
2015-Jun-29 00:32N 33°44' W 118°12'1 1.0
2015-Jun-28 23:16N 33°45' W 118°12'3 4.3
2015-Jun-28 22:33N 33°44' W 118°16'0 0.5
2015-Jun-28 21:30N 33°44' W 118°16'1 0.6
2015-Jun-28 20:33N 33°44' W 118°16'0 0.0
2015-Jun-28 19:32N 33°44' W 118°16'0 0.0
2015-Jun-28 18:31N 33°44' W 118°16'0 0.0
2015-Jun-28 17:33N 33°44' W 118°16'0 0.0
2015-Jun-28 16:33N 33°44' W 118°16'1 0.6
2015-Jun-28 15:28N 33°44' W 118°16'3 3.1
2015-Jun-28 14:29N 33°44' W 118°13'2 1.1
2015-Jun-28 13:04N 33°45' W 118°13'0 0.2
2015-Jun-28 12:29N 33°45' W 118°13'0 0.2
2015-Jun-28 10:26N 33°46' W 118°13'0 0.4
2015-Jun-28 09:33N 33°46' W 118°13'3 1.4
2015-Jun-28 07:22N 33°44' W 118°16'0 0.0
2015-Jun-28 06:33N 33°44' W 118°16'0 0.0
2015-Jun-28 05:25N 33°44' W 118°16'0 0.0
2015-Jun-28 04:33N 33°44' W 118°16'0 0.0
2015-Jun-28 03:31N 33°44' W 118°16'0 0.0
2015-Jun-28 02:32N 33°44' W 118°16'0 0.0
2015-Jun-28 01:33N 33°44' W 118°16'0 0.0
2015-Jun-28 00:33N 33°44' W 118°16'0 0.1
2015-Jun-27 23:33N 33°44' W 118°16'4 2.9
2015-Jun-27 22:18N 33°44' W 118°11'1 0.6
2015-Jun-27 21:05N 33°43' W 118°11'2 3.4
2015-Jun-27 20:30N 33°45' W 118°13'0 0.0
2015-Jun-27 19:30N 33°45' W 118°13'1 1.2
2015-Jun-27 18:32N 33°46' W 118°13'3 3.1
2015-Jun-27 17:33N 33°44' W 118°16'0 0.0
2015-Jun-27 16:33N 33°44' W 118°16'0 0.0
2015-Jun-27 15:33N 33°44' W 118°16'4 3.9
2015-Jun-27 14:31N 33°45' W 118°11'3 1.3
2015-Jun-27 12:32N 33°45' W 118°14'2 1.8
2015-Jun-27 11:33N 33°44' W 118°12'3 3.5
2015-Jun-27 10:33N 33°45' W 118°16'1 1.3
2015-Jun-27 09:33N 33°44' W 118°16'3 2.9
2015-Jun-27 08:33N 33°45' W 118°13'1 0.6
2015-Jun-27 07:33N 33°45' W 118°13'4 3.6
2015-Jun-27 06:32N 33°42' W 118°11'1 0.7
2015-Jun-27 05:33N 33°42' W 118°12'4 4.0
2015-Jun-27 04:33N 33°44' W 118°16'0 0.0
2015-Jun-27 02:34N 33°44' W 118°16'3 3.1
2015-Jun-27 01:33N 33°45' W 118°12'0 0.3
2015-Jun-27 00:33N 33°45' W 118°12'0 0.0
2015-Jun-26 23:34N 33°45' W 118°12'1 1.1
2015-Jun-26 22:33N 33°44' W 118°13'3 2.5
2015-Jun-26 21:21N 33°44' W 118°16'6 2.1
2015-Jun-26 18:29N 33°44' W 118°09'1 1.0
2015-Jun-26 17:18N 33°44' W 118°08'6 8.7
2015-Jun-26 16:34N 33°44' W 118°16'0 0.0
2015-Jun-26 15:33N 33°44' W 118°16'4 3.4
2015-Jun-26 14:23N 33°45' W 118°11'1 0.7
2015-Jun-26 12:33N 33°44' W 118°10'5 4.8
2015-Jun-26 11:33N 33°45' W 118°16'2 0.7
2015-Jun-26 08:29N 33°43' W 118°16'3 1.4
2015-Jun-26 06:30N 33°44' W 118°13'2 2.5
2015-Jun-26 05:33N 33°44' W 118°16'0 0.0
2015-Jun-26 03:33N 33°44' W 118°16'3 2.6
2015-Jun-26 02:33N 33°44' W 118°13'1 0.6
2015-Jun-26 01:33N 33°45' W 118°13'0 0.4
2015-Jun-26 00:33N 33°45' W 118°13'0 0.0
2015-Jun-25 23:33N 33°45' W 118°13'4 3.8
2015-Jun-25 22:33N 33°44' W 118°09'6 5.1
2015-Jun-25 21:25N 33°44' W 118°16'1 1.2
2015-Jun-25 20:33N 33°45' W 118°16'1 1.1
2015-Jun-25 19:32N 33°44' W 118°16'1 1.0
2015-Jun-25 18:31N 33°45' W 118°17'0 0.1
2015-Jun-25 17:33N 33°44' W 118°17'1 0.9
2015-Jun-25 16:28N 33°44' W 118°16'0 0.0
2015-Jun-25 15:32N 33°44' W 118°16'0 0.1
2015-Jun-25 14:32N 33°44' W 118°16'2 1.9
2015-Jun-25 13:26N 33°46' W 118°16'2 2.4
2015-Jun-25 12:25N 33°43' W 118°16'2 2.0
2015-Jun-25 11:33N 33°45' W 118°16'1 0.1
2015-Jun-25 02:33N 33°44' W 118°16'0 0.0
2015-Jun-25 01:33N 33°44' W 118°16'0 0.0
2015-Jun-25 00:33N 33°44' W 118°16'0 0.2
2015-Jun-24 23:33N 33°44' W 118°15'2 2.0
2015-Jun-24 22:33N 33°44' W 118°13'2 1.8
2015-Jun-24 21:33N 33°43' W 118°15'3 2.5
2015-Jun-24 20:33N 33°45' W 118°16'3 0.5
2015-Jun-24 15:10N 33°46' W 118°13'0 0.1
2015-Jun-24 14:25N 33°46' W 118°13'3 0.5
2015-Jun-24 08:27N 33°44' W 118°16'0 0.0
2015-Jun-24 07:33N 33°44' W 118°16'0 0.0
2015-Jun-24 06:31N 33°44' W 118°16'0 0.0
2015-Jun-24 05:33N 33°44' W 118°16'0 0.0
2015-Jun-24 04:32N 33°44' W 118°16'0 0.0
2015-Jun-24 03:33N 33°44' W 118°16'0 0.0
2015-Jun-24 02:33N 33°44' W 118°16'0 0.0
2015-Jun-24 01:33N 33°44' W 118°16'2 2.0
2015-Jun-24 00:33N 33°46' W 118°16'2 2.2
2015-Jun-23 23:33N 33°44' W 118°16'3 2.6
2015-Jun-23 22:33N 33°45' W 118°13'2 1.6
2015-Jun-23 21:33N 33°44' W 118°13'3 0.1
2015-Jun-22 19:07N 33°43' W 118°16'1 2.7
2015-Jun-22 18:33N 33°44' W 118°17'1 0.9
2015-Jun-22 17:33N 33°44' W 118°16'2 2.1
2015-Jun-22 16:34N 33°44' W 118°13'3 3.1
2015-Jun-22 15:33N 33°46' W 118°16'1 0.2
2015-Jun-22 12:25N 33°45' W 118°16'1 1.1
2015-Jun-22 11:33N 33°46' W 118°16'1 0.5
2015-Jun-22 10:31N 33°45' W 118°16'2 2.0
2015-Jun-22 09:22N 33°45' W 118°13'3 2.9
2015-Jun-22 08:19N 33°43' W 118°16'1 0.4
2015-Jun-22 06:33N 33°44' W 118°16'0 0.0
2015-Jun-22 05:32N 33°44' W 118°16'0 0.0
2015-Jun-22 04:33N 33°44' W 118°16'2 2.1
2015-Jun-22 03:34N 33°46' W 118°15'3 3.1
2015-Jun-22 02:33N 33°43' W 118°15'1 1.2
2015-Jun-22 01:33N 33°44' W 118°16'0 0.0
2015-Jun-22 00:28N 33°44' W 118°16'0 0.0
2015-Jun-21 23:33N 33°44' W 118°16'1 0.8
2015-Jun-21 22:33N 33°44' W 118°17'0 0.4
2015-Jun-21 21:33N 33°44' W 118°17'1 0.9
2015-Jun-21 20:31N 33°44' W 118°16'0 0.0
2015-Jun-21 17:17N 33°44' W 118°16'0 0.0
2015-Jun-21 16:26N 33°44' W 118°16'1 1.0
2015-Jun-21 15:30N 33°43' W 118°15'5 2.5
2015-Jun-21 13:32N 33°44' W 118°10'2 2.5
2015-Jun-21 12:33N 33°45' W 118°13'1 1.0
2015-Jun-21 11:33N 33°45' W 118°13'2 0.9
2015-Jun-21 09:30N 33°44' W 118°11'4 4.6
2015-Jun-21 08:33N 33°45' W 118°17'1 1.0
2015-Jun-21 07:33N 33°44' W 118°16'0 0.0
2015-Jun-21 06:33N 33°44' W 118°16'1 1.5
2015-Jun-21 05:33N 33°43' W 118°14'2 2.0
2015-Jun-21 04:34N 33°45' W 118°14'1 1.5
2015-Jun-21 03:33N 33°45' W 118°16'0 0.1
2015-Jun-21 02:34N 33°45' W 118°16'2 1.7
2015-Jun-21 01:33N 33°44' W 118°16'2 1.4
2015-Jun-21 00:03N 33°44' W 118°13'1 2.4
2015-Jun-20 23:34N 33°45' W 118°12'0 0.4
2015-Jun-20 22:34N 33°45' W 118°13'1 1.2
2015-Jun-20 21:34N 33°44' W 118°13'3 3.0
2015-Jun-20 20:34N 33°45' W 118°17'0 0.2
2015-Jun-20 19:33N 33°45' W 118°17'2 1.8
2015-Jun-20 18:33N 33°44' W 118°16'0 0.0
2015-Jun-20 17:32N 33°44' W 118°16'0 0.0
2015-Jun-20 16:33N 33°44' W 118°16'0 0.0
2015-Jun-20 15:34N 33°44' W 118°16'4 3.9
2015-Jun-20 14:33N 33°45' W 118°11'1 1.2
2015-Jun-20 13:33N 33°45' W 118°12'1 1.0
2015-Jun-20 12:30N 33°45' W 118°14'2 2.6
2015-Jun-20 11:33N 33°44' W 118°11'1 0.5
2015-Jun-20 10:33N 33°44' W 118°12'0 0.1
2015-Jun-20 09:33N 33°44' W 118°12'0 0.0
2015-Jun-20 08:33N 33°44' W 118°12'0 0.1
2015-Jun-20 07:34N 33°44' W 118°12'0 0.1
2015-Jun-20 06:33N 33°44' W 118°12'3 3.3
2015-Jun-20 05:33N 33°44' W 118°16'0 0.3
2015-Jun-20 04:33N 33°44' W 118°15'2 2.0
2015-Jun-20 03:34N 33°46' W 118°16'2 2.0
2015-Jun-20 02:33N 33°44' W 118°16'0 0.0
2015-Jun-20 01:34N 33°44' W 118°16'1 0.9
2015-Jun-20 00:34N 33°43' W 118°15'4 3.6
2015-Jun-19 23:31N 33°46' W 118°13'5 5.3
2015-Jun-19 22:34N 33°44' W 118°08'  
Track history (hours):
 
Tides and Currents Weather Stations Pressure Air Temp Water Temp Dewpoint Dewpoint Depression Visibility Wind Speed Wind Dir Waves Ship Positions

John Quigg

Owner: Harley Marine Services, Inc, Seattle, WA. More information available from US FCC via Universal Licensing System and Coast Guard Vessel Documentation Center.

Last reported at 2015-Jun-29 22:31 UTC. Time now 2015-Jun-29 23:09 UTC.
Position N 33°45' W 118°16'.

MMSI: 365934954.

Date/timePositionNaut miles runAvg speedWind from/ knotsBaromVisibWave heightAir tempDewpointWater temp
2015-Jun-29 22:31N 33°45' W 118°16'1 1.4
2015-Jun-29 21:32N 33°44' W 118°16'0 0.0
2015-Jun-29 20:28N 33°44' W 118°16'1 1.1
2015-Jun-29 19:33N 33°45' W 118°17'1 1.0
2015-Jun-29 18:33N 33°44' W 118°16'0 0.0
2015-Jun-29 17:33N 33°44' W 118°16'3 2.7
2015-Jun-29 16:33N 33°45' W 118°13'0 0.0
2015-Jun-29 15:33N 33°45' W 118°13'3 2.5
2015-Jun-29 14:28N 33°43' W 118°11'0 0.5
2015-Jun-29 13:33N 33°44' W 118°12'4 4.1
2015-Jun-29 12:33N 33°45' W 118°16'1 0.6
2015-Jun-29 11:33N 33°45' W 118°16'3 2.4
2015-Jun-29 10:30N 33°43' W 118°15'4 4.1
2015-Jun-29 09:33N 33°46' W 118°13'0 0.0
2015-Jun-29 08:33N 33°46' W 118°13'0 0.4
2015-Jun-29 07:33N 33°46' W 118°13'3 2.5
2015-Jun-29 06:31N 33°43' W 118°14'2 1.7
2015-Jun-29 05:33N 33°44' W 118°16'0 0.0
2015-Jun-29 04:33N 33°44' W 118°16'0 0.0
2015-Jun-29 03:33N 33°44' W 118°16'0 0.0
2015-Jun-29 02:33N 33°44' W 118°16'0 0.0
2015-Jun-29 01:33N 33°44' W 118°16'3 2.8
2015-Jun-29 00:32N 33°44' W 118°12'1 1.0
2015-Jun-28 23:16N 33°45' W 118°12'3 4.3
2015-Jun-28 22:33N 33°44' W 118°16'0 0.5
2015-Jun-28 21:30N 33°44' W 118°16'1 0.6
2015-Jun-28 20:33N 33°44' W 118°16'0 0.0
2015-Jun-28 19:32N 33°44' W 118°16'0 0.0
2015-Jun-28 18:31N 33°44' W 118°16'0 0.0
2015-Jun-28 17:33N 33°44' W 118°16'0 0.0
2015-Jun-28 16:33N 33°44' W 118°16'1 0.6
2015-Jun-28 15:28N 33°44' W 118°16'3 3.1
2015-Jun-28 14:29N 33°44' W 118°13'2 1.1
2015-Jun-28 13:04N 33°45' W 118°13'0 0.2
2015-Jun-28 12:29N 33°45' W 118°13'0 0.2
2015-Jun-28 10:26N 33°46' W 118°13'0 0.4
2015-Jun-28 09:33N 33°46' W 118°13'3 1.4
2015-Jun-28 07:22N 33°44' W 118°16'0 0.0
2015-Jun-28 06:33N 33°44' W 118°16'0 0.0
2015-Jun-28 05:25N 33°44' W 118°16'0 0.0
2015-Jun-28 04:33N 33°44' W 118°16'0 0.0
2015-Jun-28 03:31N 33°44' W 118°16'0 0.0
2015-Jun-28 02:32N 33°44' W 118°16'0 0.0
2015-Jun-28 01:33N 33°44' W 118°16'0 0.0
2015-Jun-28 00:33N 33°44' W 118°16'0 0.1
2015-Jun-27 23:33N 33°44' W 118°16'4 2.9
2015-Jun-27 22:18N 33°44' W 118°11'1 0.6
2015-Jun-27 21:05N 33°43' W 118°11'2 3.4
2015-Jun-27 20:30N 33°45' W 118°13'0 0.0
2015-Jun-27 19:30N 33°45' W 118°13'1 1.2
2015-Jun-27 18:32N 33°46' W 118°13'3 3.1
2015-Jun-27 17:33N 33°44' W 118°16'0 0.0
2015-Jun-27 16:33N 33°44' W 118°16'0 0.0
2015-Jun-27 15:33N 33°44' W 118°16'4 3.9
2015-Jun-27 14:31N 33°45' W 118°11'3 1.3
2015-Jun-27 12:32N 33°45' W 118°14'2 1.8
2015-Jun-27 11:33N 33°44' W 118°12'3 3.5
2015-Jun-27 10:33N 33°45' W 118°16'1 1.3
2015-Jun-27 09:33N 33°44' W 118°16'3 2.9
2015-Jun-27 08:33N 33°45' W 118°13'1 0.6
2015-Jun-27 07:33N 33°45' W 118°13'4 3.6
2015-Jun-27 06:32N 33°42' W 118°11'1 0.7
2015-Jun-27 05:33N 33°42' W 118°12'4 4.0
2015-Jun-27 04:33N 33°44' W 118°16'0 0.0
2015-Jun-27 02:34N 33°44' W 118°16'3 3.1
2015-Jun-27 01:33N 33°45' W 118°12'0 0.3
2015-Jun-27 00:33N 33°45' W 118°12'0 0.0
2015-Jun-26 23:34N 33°45' W 118°12'1 1.1
2015-Jun-26 22:33N 33°44' W 118°13'3 2.5
2015-Jun-26 21:21N 33°44' W 118°16'6 2.1
2015-Jun-26 18:29N 33°44' W 118°09'1 1.0
2015-Jun-26 17:18N 33°44' W 118°08'6 8.7
2015-Jun-26 16:34N 33°44' W 118°16'0 0.0
2015-Jun-26 15:33N 33°44' W 118°16'4 3.4
2015-Jun-26 14:23N 33°45' W 118°11'1 0.7
2015-Jun-26 12:33N 33°44' W 118°10'5 4.8
2015-Jun-26 11:33N 33°45' W 118°16'2 0.7
2015-Jun-26 08:29N 33°43' W 118°16'3 1.4
2015-Jun-26 06:30N 33°44' W 118°13'2 2.5
2015-Jun-26 05:33N 33°44' W 118°16'0 0.0
2015-Jun-26 03:33N 33°44' W 118°16'3 2.6
2015-Jun-26 02:33N 33°44' W 118°13'1 0.6
2015-Jun-26 01:33N 33°45' W 118°13'0 0.4
2015-Jun-26 00:33N 33°45' W 118°13'0 0.0
2015-Jun-25 23:33N 33°45' W 118°13'4 3.8
2015-Jun-25 22:33N 33°44' W 118°09'6 5.1
2015-Jun-25 21:25N 33°44' W 118°16'1 1.2
2015-Jun-25 20:33N 33°45' W 118°16'1 1.1
2015-Jun-25 19:32N 33°44' W 118°16'1 1.0
2015-Jun-25 18:31N 33°45' W 118°17'0 0.1
2015-Jun-25 17:33N 33°44' W 118°17'1 0.9
2015-Jun-25 16:28N 33°44' W 118°16'0 0.0
2015-Jun-25 15:32N 33°44' W 118°16'0 0.1
2015-Jun-25 14:32N 33°44' W 118°16'2 1.9
2015-Jun-25 13:26N 33°46' W 118°16'2 2.4
2015-Jun-25 12:25N 33°43' W 118°16'2 2.0
2015-Jun-25 11:33N 33°45' W 118°16'1 0.1
2015-Jun-25 02:33N 33°44' W 118°16'0 0.0
2015-Jun-25 01:33N 33°44' W 118°16'0 0.0
2015-Jun-25 00:33N 33°44' W 118°16'0 0.2
2015-Jun-24 23:33N 33°44' W 118°15'2 2.0
2015-Jun-24 22:33N 33°44' W 118°13'2 1.8
2015-Jun-24 21:33N 33°43' W 118°15'3 2.5
2015-Jun-24 20:33N 33°45' W 118°16'3 0.5
2015-Jun-24 15:10N 33°46' W 118°13'0 0.1
2015-Jun-24 14:25N 33°46' W 118°13'3 0.5
2015-Jun-24 08:27N 33°44' W 118°16'0 0.0
2015-Jun-24 07:33N 33°44' W 118°16'0 0.0
2015-Jun-24 06:31N 33°44' W 118°16'0 0.0
2015-Jun-24 05:33N 33°44' W 118°16'0 0.0
2015-Jun-24 04:32N 33°44' W 118°16'0 0.0
2015-Jun-24 03:33N 33°44' W 118°16'0 0.0
2015-Jun-24 02:33N 33°44' W 118°16'0 0.0
2015-Jun-24 01:33N 33°44' W 118°16'2 2.0
2015-Jun-24 00:33N 33°46' W 118°16'2 2.2
2015-Jun-23 23:33N 33°44' W 118°16'3 2.6
2015-Jun-23 22:33N 33°45' W 118°13'2 1.6
2015-Jun-23 21:33N 33°44' W 118°13'3 0.1
2015-Jun-22 19:07N 33°43' W 118°16'1 2.7
2015-Jun-22 18:33N 33°44' W 118°17'1 0.9
2015-Jun-22 17:33N 33°44' W 118°16'2 2.1
2015-Jun-22 16:34N 33°44' W 118°13'3 3.1
2015-Jun-22 15:33N 33°46' W 118°16'1 0.2
2015-Jun-22 12:25N 33°45' W 118°16'1 1.1
2015-Jun-22 11:33N 33°46' W 118°16'1 0.5
2015-Jun-22 10:31N 33°45' W 118°16'2 2.0
2015-Jun-22 09:22N 33°45' W 118°13'3 2.9
2015-Jun-22 08:19N 33°43' W 118°16'1 0.4
2015-Jun-22 06:33N 33°44' W 118°16'0 0.0
2015-Jun-22 05:32N 33°44' W 118°16'0 0.0
2015-Jun-22 04:33N 33°44' W 118°16'2 2.1
2015-Jun-22 03:34N 33°46' W 118°15'3 3.1
2015-Jun-22 02:33N 33°43' W 118°15'1 1.2
2015-Jun-22 01:33N 33°44' W 118°16'0 0.0
2015-Jun-22 00:28N 33°44' W 118°16'0 0.0
2015-Jun-21 23:33N 33°44' W 118°16'1 0.8
2015-Jun-21 22:33N 33°44' W 118°17'0 0.4
2015-Jun-21 21:33N 33°44' W 118°17'1 0.9
2015-Jun-21 20:31N 33°44' W 118°16'0 0.0
2015-Jun-21 17:17N 33°44' W 118°16'0 0.0
2015-Jun-21 16:26N 33°44' W 118°16'1 1.0
2015-Jun-21 15:30N 33°43' W 118°15'5 2.5
2015-Jun-21 13:32N 33°44' W 118°10'2 2.5
2015-Jun-21 12:33N 33°45' W 118°13'1 1.0
2015-Jun-21 11:33N 33°45' W 118°13'2 0.9
2015-Jun-21 09:30N 33°44' W 118°11'4 4.6
2015-Jun-21 08:33N 33°45' W 118°17'1 1.0
2015-Jun-21 07:33N 33°44' W 118°16'0 0.0
2015-Jun-21 06:33N 33°44' W 118°16'1 1.5
2015-Jun-21 05:33N 33°43' W 118°14'2 2.0
2015-Jun-21 04:34N 33°45' W 118°14'1 1.5
2015-Jun-21 03:33N 33°45' W 118°16'0 0.1
2015-Jun-21 02:34N 33°45' W 118°16'2 1.7
2015-Jun-21 01:33N 33°44' W 118°16'2 1.4
2015-Jun-21 00:03N 33°44' W 118°13'1 2.4
2015-Jun-20 23:34N 33°45' W 118°12'0 0.4
2015-Jun-20 22:34N 33°45' W 118°13'1 1.2
2015-Jun-20 21:34N 33°44' W 118°13'3 3.0
2015-Jun-20 20:34N 33°45' W 118°17'0 0.2
2015-Jun-20 19:33N 33°45' W 118°17'2 1.8
2015-Jun-20 18:33N 33°44' W 118°16'0 0.0
2015-Jun-20 17:32N 33°44' W 118°16'0 0.0
2015-Jun-20 16:33N 33°44' W 118°16'0 0.0
2015-Jun-20 15:34N 33°44' W 118°16'4 3.9
2015-Jun-20 14:33N 33°45' W 118°11'1 1.2
2015-Jun-20 13:33N 33°45' W 118°12'1 1.0
2015-Jun-20 12:30N 33°45' W 118°14'2 2.6
2015-Jun-20 11:33N 33°44' W 118°11'1 0.5
2015-Jun-20 10:33N 33°44' W 118°12'0 0.1
2015-Jun-20 09:33N 33°44' W 118°12'0 0.0
2015-Jun-20 08:33N 33°44' W 118°12'0 0.1
2015-Jun-20 07:34N 33°44' W 118°12'0 0.1
2015-Jun-20 06:33N 33°44' W 118°12'3 3.3
2015-Jun-20 05:33N 33°44' W 118°16'0 0.3
2015-Jun-20 04:33N 33°44' W 118°15'2 2.0
2015-Jun-20 03:34N 33°46' W 118°16'2 2.0
2015-Jun-20 02:33N 33°44' W 118°16'0 0.0
2015-Jun-20 01:34N 33°44' W 118°16'1 0.9
2015-Jun-20 00:34N 33°43' W 118°15'4 3.6
2015-Jun-19 23:31N 33°46' W 118°13'5 5.3
2015-Jun-19 22:34N 33°44' W 118°08'  

Dump ship's entire track history